Point Pleasant, NJ (08742)

6:19 PM EDT on August 30, 2016 (GMT -0400)
Jersey Shore Wx Center | | Change Station
Active Advisory: Beach Hazard Statement

Elev 13 ft 40.09 °N, 74.05 °W | Updated 5 seconds ago

Clear
Clear
79.6 °F
Feels Like 83 °F
N
0.0
Wind Variable Wind from South

Today
High -- | Low -- °F
--% Chance of Precip.
Yesterday
High -- | Low -- °F
Precip. -- in
Pressure 30.09 in
Visibility 10.0 miles
Clouds Clear
Heat Index 83 °F
Dew Point 71 °F
Humidity 74%
Rainfall 0.00 in
Snow Depth Not available.
6:22 AM 7:30 PM
Waning Crescent, 2% visible
METAR KBLM 302156Z AUTO 11009G14KT 10SM CLR 26/19 A3008 RMK AO2 SLP187 T02560194
Pressure 30.09 in
Visibility 10.0 miles
Clouds Clear
Heat Index 83 °F
Dew Point 71 °F
Humidity 74%
Rainfall 0.00 in
Snow Depth Not available.
6:22 AM 7:30 PM
Waning Crescent, 2% visible
METAR KBLM 302156Z AUTO 11009G14KT 10SM CLR 26/19 A3008 RMK AO2 SLP187 T02560194

10-Day Weather Forecast

Almanac

Astronomy

Aug. 30, 2016 Rise Set
Actual Time
Civil Twilight
Nautical Twilight
Astronomical Twilight
Moon
Length of Visible Light
Length of Day
Tomorrow will be .
, % of the Moon is Illuminated

Today's Extremes

State Highs State Lows

Community

WunderPhotos

Upload Photos

1,935,911 photos uploaded!

WunderBlog® & News

Nearby

Air Quality

  Air Quality AQ Index Pollutant
Not available.

Snow Depth

Station Depth Elevation

Earthquake Activity

City Distance Mag. Time & Date
Minimum magnitude displayed is 2.5.

Coastal Water Temperatures

Place Temperature

Stations

Nearby Weather Stations

Station Location Temp. Windchill Dew Point Humidity Wind Precip. Elev Updated Type
                   

Watches & Warnings

Beach Hazard Statement
Issued: 3:41 PM EDT Aug. 30, 2016 – National Weather Service

... Beach hazards statement remains in effect through Wednesday
evening...

For the rest of this evening and through Wednesday... there is the
potential for dangerous rip currents. Swim only in designated
areas patrolled by lifeguards.

While the swells will decrease ever so slowly on Wednesday... a
moderate risk for the formation of dangerous rip currents will
probably continue into Wednesday evening.

The large breakers in the beach swimming zone can also knock
swimmers and waders into the sand... causing injury.

It is strongly advised to swim only in designated areas watched
by lifeguards. Swimming after the lifeguards go home or where
lifeguards do not have you in sight raises the risk of injury or
death due to rip currents.

Precautionary/preparedness actions...

A beach hazards statement is issued when threats such as rip
currents... longshore currents... sneaker waves and other hazards
create life-threatening conditions in the surf zone. Caution
should be used when in or near the water.


Mps